Time;durP1;ratioP1;P1;durP2;ratioP2;P2;SDS_P1;SDS_P2;PMS_P1;PMS_P2;Temp;Humidity;BMP_temperature;BMP_pressure;BME280_temperature;BME280_humidity;BME280_pressure;Samples;Min_cycle;Max_cycle;Signal;HPM_P1;HPM_P2
2023/07/09 00:02:02;;;;;;;11.57;8.30;;;23.70;93.70;;;;;;5098029;28;20047;-57
2023/07/09 00:04:33;;;;;;;12.35;8.73;;;23.70;93.80;;;;;;5100059;28;20048;-58
2023/07/09 00:07:02;;;;;;;16.20;8.23;;;23.60;93.90;;;;;;5099084;28;20075;-58
2023/07/09 00:09:28;;;;;;;9.00;7.90;;;23.60;94.00;;;;;;5097588;28;20056;-58
2023/07/09 00:11:54;;;;;;;14.80;8.73;;;23.50;94.20;;;;;;5099782;28;20047;-58
2023/07/09 00:14:21;;;;;;;11.80;9.20;;;23.40;94.40;;;;;;5096441;28;20044;-58
2023/07/09 00:16:48;;;;;;;14.85;8.50;;;23.40;94.40;;;;;;5099999;28;20285;-57
2023/07/09 00:19:17;;;;;;;12.30;8.68;;;23.40;94.60;;;;;;5098028;28;20173;-58
2023/07/09 00:21:45;;;;;;;11.02;8.88;;;23.30;94.60;;;;;;5099378;28;20036;-58
2023/07/09 00:24:14;;;;;;;14.38;9.32;;;23.30;94.60;;;;;;5099268;28;20036;-57
2023/07/09 00:26:40;;;;;;;12.27;9.15;;;23.30;95.00;;;;;;5097840;28;20040;-57
2023/07/09 00:29:12;;;;;;;13.98;9.27;;;23.20;95.40;;;;;;5098332;28;20520;-58
2023/07/09 00:31:40;;;;;;;11.88;8.98;;;23.20;96.00;;;;;;5097635;28;20097;-58
2023/07/09 00:34:08;;;;;;;12.13;8.05;;;23.10;95.90;;;;;;5098875;28;20052;-58
2023/07/09 00:36:34;;;;;;;12.32;9.38;;;23.00;95.90;;;;;;5098172;28;20028;-57
2023/07/09 00:39:04;;;;;;;18.88;9.30;;;23.00;96.00;;;;;;5098875;28;20078;-58
2023/07/09 00:41:33;;;;;;;12.35;9.25;;;23.00;95.90;;;;;;5099343;28;20036;-57
2023/07/09 00:44:19;;;;;;;13.07;8.52;;;22.90;95.80;;;;;;5097686;28;20551;-58
2023/07/09 00:46:47;;;;;;;14.15;9.60;;;22.80;95.90;;;;;;5098763;28;20047;-58
2023/07/09 00:49:16;;;;;;;12.60;9.15;;;22.80;95.90;;;;;;5097771;28;20054;-57
2023/07/09 00:51:46;;;;;;;14.75;8.98;;;22.70;95.90;;;;;;5099017;28;20071;-58
2023/07/09 00:54:36;;;;;;;14.68;8.93;;;22.70;96.00;;;;;;5099174;28;20036;-57
2023/07/09 00:57:12;;;;;;;13.93;9.27;;;22.60;96.30;;;;;;5097764;28;20068;-57
2023/07/09 00:59:38;;;;;;;;;;;22.60;96.30;;;;;;5100394;28;20055;-57
2023/07/09 01:02:05;;;;;;;11.63;8.73;;;22.60;97.00;;;;;;5097523;28;20403;-57
2023/07/09 01:04:31;;;;;;;12.00;8.90;;;22.60;96.40;;;;;;5098183;28;20067;-57
2023/07/09 01:06:57;;;;;;;15.20;9.10;;;22.50;96.30;;;;;;5098812;28;20047;-57
2023/07/09 01:09:24;;;;;;;16.23;9.05;;;22.50;96.60;;;;;;5097467;28;20078;-58
2023/07/09 01:11:50;;;;;;;15.77;9.50;;;22.40;96.80;;;;;;5099142;28;20048;-58
2023/07/09 01:14:21;;;;;;;11.43;9.55;;;22.40;97.00;;;;;;5096134;28;20087;-58
2023/07/09 01:16:57;;;;;;;13.75;9.38;;;22.40;97.10;;;;;;5099474;28;20071;-57
2023/07/09 01:19:25;;;;;;;15.40;9.73;;;22.30;97.20;;;;;;5100267;28;20504;-57
2023/07/09 01:21:59;;;;;;;12.32;9.10;;;22.30;97.30;;;;;;5102349;28;20054;-58
2023/07/09 01:24:49;;;;;;;11.85;9.02;;;22.30;97.40;;;;;;5102719;28;20044;-58
2023/07/09 01:27:17;;;;;;;11.70;9.43;;;22.30;97.90;;;;;;5100693;28;20500;-57
2023/07/09 01:29:48;;;;;;;13.18;9.93;;;22.20;97.60;;;;;;5103001;28;20096;-58
2023/07/09 01:32:18;;;;;;;11.45;8.80;;;22.10;97.90;;;;;;5101344;28;20044;-57
2023/07/09 01:34:47;;;;;;;15.55;9.77;;;22.10;98.20;;;;;;5102215;28;20919;-58
2023/07/09 01:37:17;;;;;;;16.63;10.60;;;22.00;98.30;;;;;;5101318;28;20037;-57
2023/07/09 01:39:44;;;;;;;12.23;9.68;;;22.00;98.30;;;;;;5100618;28;20522;-58
2023/07/09 01:42:10;;;;;;;17.05;9.88;;;21.90;98.40;;;;;;5102727;28;20058;-57
2023/07/09 01:44:38;;;;;;;15.60;10.35;;;21.90;98.60;;;;;;5082243;28;20040;-57
2023/07/09 01:47:04;;;;;;;16.65;10.05;;;21.80;98.70;;;;;;5102753;28;20047;-57
2023/07/09 01:49:32;;;;;;;12.65;9.80;;;21.80;98.80;;;;;;5101249;28;20195;-57
2023/07/09 01:52:03;;;;;;;11.93;9.82;;;21.80;99.20;;;;;;5101313;28;20131;-58
2023/07/09 01:54:30;;;;;;;13.80;10.63;;;21.80;99.30;;;;;;5102280;28;20040;-57
2023/07/09 01:57:25;;;;;;;11.52;9.52;;;21.70;99.30;;;;;;5100417;28;20508;-57
2023/07/09 01:59:54;;;;;;;18.40;10.88;;;21.70;99.70;;;;;;5101279;28;20055;-58
2023/07/09 02:02:21;;;;;;;15.75;9.98;;;21.60;99.70;;;;;;5099676;28;20078;-57
2023/07/09 02:04:52;;;;;;;12.20;9.60;;;21.60;99.60;;;;;;5101096;28;20040;-57
2023/07/09 02:07:18;;;;;;;13.65;10.52;;;21.50;99.60;;;;;;5100652;28;20059;-58
2023/07/09 02:09:44;;;;;;;14.05;10.85;;;21.50;99.80;;;;;;5099506;28;20086;-57
2023/07/09 02:12:11;;;;;;;12.18;9.70;;;21.50;99.90;;;;;;5101919;28;20624;-57
2023/07/09 02:14:38;;;;;;;12.65;9.77;;;21.40;99.90;;;;;;5099698;28;20040;-57
2023/07/09 02:17:04;;;;;;;15.00;10.80;;;21.40;99.90;;;;;;5102054;28;20032;-57
2023/07/09 02:19:30;;;;;;;19.42;10.75;;;21.40;99.90;;;;;;5100754;28;20100;-57
2023/07/09 02:21:56;;;;;;;12.48;10.38;;;21.30;99.90;;;;;;5100671;28;20096;-57
2023/07/09 02:24:27;;;;;;;16.50;11.80;;;21.30;99.90;;;;;;5101574;28;20048;-57
2023/07/09 02:26:54;;;;;;;15.00;11.10;;;21.20;99.90;;;;;;5099870;28;20047;-57
2023/07/09 02:29:20;;;;;;;16.45;11.50;;;21.20;99.90;;;;;;5100146;28;20040;-57
2023/07/09 02:31:49;;;;;;;14.38;11.20;;;21.20;99.90;;;;;;5099152;28;20093;-57
2023/07/09 02:34:14;;;;;;;13.80;11.48;;;21.10;99.90;;;;;;5100465;28;20042;-58
2023/07/09 02:36:43;;;;;;;15.45;11.27;;;21.10;99.90;;;;;;5100567;28;20123;-57
2023/07/09 02:39:13;;;;;;;15.82;11.52;;;21.10;99.90;;;;;;5100260;28;20055;-58
2023/07/09 02:41:40;;;;;;;16.80;12.07;;;21.10;99.90;;;;;;5101166;28;20049;-57
2023/07/09 02:44:06;;;;;;;17.58;12.25;;;21.10;99.90;;;;;;5081166;28;20154;-57
2023/07/09 02:46:32;;;;;;;14.25;11.73;;;21.00;99.90;;;;;;5101573;28;20071;-57
2023/07/09 02:48:59;;;;;;;14.57;12.02;;;21.00;99.90;;;;;;5099205;28;20486;-57
2023/07/09 02:51:26;;;;;;;15.60;12.15;;;21.00;99.90;;;;;;5100100;28;20028;-57
2023/07/09 02:53:54;;;;;;;16.40;11.63;;;20.90;99.90;;;;;;5100308;28;20083;-57
2023/07/09 02:56:20;;;;;;;14.32;11.18;;;20.90;99.90;;;;;;5098552;28;20071;-58
2023/07/09 02:58:46;;;;;;;15.43;11.70;;;20.90;99.90;;;;;;5082900;28;20048;-57
2023/07/09 03:01:12;;;;;;;16.65;11.73;;;20.90;99.90;;;;;;5099170;28;20509;-58
2023/07/09 03:03:38;;;;;;;16.20;11.55;;;20.90;99.90;;;;;;5099798;28;20040;-58
2023/07/09 03:06:05;;;;;;;14.60;11.80;;;20.80;99.90;;;;;;5098626;28;20087;-57
2023/07/09 03:08:31;;;;;;;14.88;11.73;;;20.80;99.90;;;;;;5101201;28;20032;-57
2023/07/09 03:10:57;;;;;;;18.83;11.52;;;20.80;99.90;;;;;;5099440;28;20065;-56
2023/07/09 03:13:23;;;;;;;18.58;11.57;;;20.80;99.90;;;;;;5098289;28;20083;-58
2023/07/09 03:15:56;;;;;;;14.45;11.65;;;20.80;99.90;;;;;;5100693;28;20043;-57
2023/07/09 03:18:22;;;;;;;14.70;12.13;;;20.70;99.90;;;;;;5098707;28;20654;-57
2023/07/09 03:20:48;;;;;;;14.95;12.30;;;20.70;99.90;;;;;;5082713;28;20052;-57
2023/07/09 03:23:14;;;;;;;15.73;11.30;;;20.70;99.90;;;;;;5098712;28;20068;-58
2023/07/09 03:25:41;;;;;;;16.50;11.60;;;20.70;99.90;;;;;;5100638;28;20050;-57
2023/07/09 03:28:07;;;;;;;12.77;11.48;;;20.70;99.90;;;;;;5099454;28;20040;-56
2023/07/09 03:30:33;;;;;;;18.48;12.35;;;20.70;99.90;;;;;;5099444;28;20046;-57
2023/07/09 03:33:00;;;;;;;15.73;11.93;;;20.60;99.90;;;;;;5098799;28;20048;-58
2023/07/09 03:35:26;;;;;;;15.88;11.98;;;20.60;99.90;;;;;;5097347;28;20055;-57
2023/07/09 03:37:52;;;;;;;16.42;11.95;;;20.60;99.90;;;;;;5100777;28;20043;-57
2023/07/09 03:40:22;;;;;;;15.80;11.45;;;20.60;99.90;;;;;;5097561;28;20047;-57
2023/07/09 03:42:48;;;;;;;13.43;10.95;;;20.60;99.90;;;;;;5116153;28;20052;-57
2023/07/09 03:45:14;;;;;;;16.13;11.43;;;20.60;99.90;;;;;;5099209;28;20043;-56
2023/07/09 03:47:39;;;;;;;14.38;11.68;;;20.60;99.90;;;;;;5098991;28;20040;-57
2023/07/09 03:50:08;;;;;;;16.33;11.65;;;20.60;99.90;;;;;;5100178;28;20119;-57
2023/07/09 03:52:34;;;;;;;14.18;10.95;;;20.60;99.90;;;;;;5097080;28;20074;-58
2023/07/09 03:55:01;;;;;;;15.10;11.55;;;20.70;99.90;;;;;;5100242;28;20024;-57
2023/07/09 03:57:27;;;;;;;17.35;11.82;;;20.70;99.90;;;;;;5079566;28;20048;-58
2023/07/09 03:59:52;;;;;;;13.07;11.05;;;20.70;99.90;;;;;;5099208;28;20052;-58
2023/07/09 04:02:18;;;;;;;14.80;11.32;;;20.70;99.90;;;;;;5098824;28;20127;-57
2023/07/09 04:04:44;;;;;;;13.20;11.07;;;20.70;99.90;;;;;;5131830;27;20040;-57
2023/07/09 04:07:10;;;;;;;14.77;11.10;;;20.70;99.90;;;;;;5099744;28;20079;-57
2023/07/09 04:09:35;;;;;;;16.50;10.88;;;20.70;99.90;;;;;;5096135;28;20040;-57
2023/07/09 04:12:01;;;;;;;14.00;10.52;;;20.70;99.90;;;;;;5081815;28;20044;-57
2023/07/09 04:14:27;;;;;;;12.75;10.60;;;20.70;99.90;;;;;;5096526;28;20047;-57
2023/07/09 04:16:53;;;;;;;11.63;10.38;;;20.70;99.90;;;;;;5098632;28;20044;-58
2023/07/09 04:19:19;;;;;;;13.40;10.48;;;20.70;99.90;;;;;;5080295;28;20054;-57
2023/07/09 04:21:44;;;;;;;11.35;9.48;;;20.70;99.90;;;;;;5080927;28;20070;-57
2023/07/09 04:24:10;;;;;;;14.38;10.07;;;20.70;99.90;;;;;;5099437;28;20365;-57
2023/07/09 04:26:38;;;;;;;13.68;9.15;;;20.80;99.90;;;;;;5097897;28;20036;-57
2023/07/09 04:29:05;;;;;;;11.77;9.80;;;20.80;99.90;;;;;;5099698;28;20055;-57
2023/07/09 04:31:31;;;;;;;11.50;10.30;;;20.80;99.90;;;;;;5096511;28;20632;-57
2023/07/09 04:33:57;;;;;;;13.20;10.07;;;20.90;99.90;;;;;;5132587;28;20064;-57
2023/07/09 04:36:23;;;;;;;12.38;9.02;;;20.90;99.90;;;;;;5131199;28;20040;-57
2023/07/09 04:38:49;;;;;;;15.23;10.35;;;21.00;99.90;;;;;;5099045;28;20048;-57
2023/07/09 04:41:14;;;;;;;13.82;10.27;;;21.00;99.90;;;;;;5099159;28;20044;-58
2023/07/09 04:43:40;;;;;;;11.57;9.57;;;21.00;99.90;;;;;;5097988;28;20044;-58
2023/07/09 04:46:06;;;;;;;14.02;10.02;;;21.00;99.90;;;;;;5099538;28;20040;-57
2023/07/09 04:48:31;;;;;;;13.20;9.95;;;21.10;99.90;;;;;;5097389;28;20044;-57
2023/07/09 04:50:59;;;;;;;11.98;9.30;;;21.10;99.90;;;;;;5098285;28;20083;-57
2023/07/09 04:53:25;;;;;;;16.65;10.15;;;21.20;99.90;;;;;;5098628;28;20044;-58
2023/07/09 04:55:51;;;;;;;13.93;9.93;;;21.20;99.90;;;;;;5103150;28;20036;-58
2023/07/09 04:58:18;;;;;;;13.60;9.57;;;21.30;99.90;;;;;;5084542;28;20058;-57
2023/07/09 05:00:45;;;;;;;14.27;9.55;;;21.30;99.90;;;;;;5101735;28;20047;-58
2023/07/09 05:03:11;;;;;;;16.42;9.93;;;21.30;99.90;;;;;;5103240;28;20044;-57
2023/07/09 05:05:45;;;;;;;11.93;9.20;;;21.30;99.90;;;;;;5101262;28;20078;-57
2023/07/09 05:08:12;;;;;;;12.70;9.70;;;21.40;99.90;;;;;;5103498;28;20061;-57
2023/07/09 05:10:46;;;;;;;12.07;9.45;;;21.40;99.90;;;;;;5101059;28;20079;-57
2023/07/09 05:13:12;;;;;;;13.65;10.13;;;21.40;99.90;;;;;;5102404;28;20083;-57
2023/07/09 05:15:46;;;;;;;12.35;9.75;;;21.40;99.90;;;;;;5102923;28;20039;-57
2023/07/09 05:18:13;;;;;;;11.57;9.18;;;21.40;99.90;;;;;;5101084;28;20048;-58
2023/07/09 05:20:40;;;;;;;13.55;10.05;;;21.40;99.90;;;;;;5103023;28;20059;-57
2023/07/09 05:23:06;;;;;;;13.80;9.77;;;21.40;99.90;;;;;;5082928;28;20040;-58
2023/07/09 05:25:31;;;;;;;13.50;9.70;;;21.30;99.90;;;;;;5103344;28;20502;-57
2023/07/09 05:27:57;;;;;;;11.68;9.20;;;21.40;99.90;;;;;;5101555;28;20047;-57
2023/07/09 05:30:23;;;;;;;15.68;10.27;;;21.40;99.90;;;;;;5101964;28;20044;-58
2023/07/09 05:32:49;;;;;;;14.48;10.50;;;21.40;99.90;;;;;;5102400;28;20052;-57
2023/07/09 05:35:14;;;;;;;16.83;10.77;;;21.70;99.90;;;;;;5133624;27;20048;-57
2023/07/09 05:37:40;;;;;;;15.70;10.73;;;21.40;99.90;;;;;;5102700;28;20400;-57
2023/07/09 05:40:07;;;;;;;13.73;10.48;;;21.40;99.90;;;;;;5100102;28;20051;-57
2023/07/09 05:42:34;;;;;;;15.27;11.02;;;21.40;99.90;;;;;;5102863;28;20048;-57
2023/07/09 05:45:00;;;;;;;12.05;9.82;;;21.40;99.90;;;;;;5100949;28;20051;-57
2023/07/09 05:47:26;;;;;;;12.13;9.80;;;21.50;99.90;;;;;;5101706;28;20495;-58
2023/07/09 05:49:52;;;;;;;14.80;10.13;;;21.50;99.90;;;;;;5102264;28;20048;-58
2023/07/09 05:52:22;;;;;;;15.48;10.73;;;21.60;99.90;;;;;;5099050;28;20047;-58
2023/07/09 05:54:52;;;;;;;19.77;10.77;;;21.70;99.90;;;;;;5100982;28;20043;-58
2023/07/09 05:57:18;;;;;;;13.63;10.40;;;21.70;99.90;;;;;;5082151;28;20048;-57
2023/07/09 05:59:44;;;;;;;12.50;10.05;;;21.80;99.90;;;;;;5135641;27;20040;-57
2023/07/09 06:02:11;;;;;;;14.55;10.48;;;21.80;99.90;;;;;;5100431;28;20587;-56
2023/07/09 06:04:37;;;;;;;12.75;10.80;;;21.90;99.90;;;;;;5082581;28;20104;-57
2023/07/09 06:07:03;;;;;;;14.00;10.05;;;22.00;99.90;;;;;;5100531;28;20044;-57
2023/07/09 06:09:30;;;;;;;15.65;11.18;;;22.10;99.90;;;;;;5099621;28;20107;-57
2023/07/09 06:11:56;;;;;;;16.10;11.63;;;22.10;99.90;;;;;;5102188;28;20050;-59
2023/07/09 06:14:22;;;;;;;13.85;11.25;;;22.20;99.90;;;;;;5099455;28;20071;-59
2023/07/09 06:16:47;;;;;;;16.65;11.93;;;22.20;99.90;;;;;;5102404;28;20089;-58
2023/07/09 06:19:13;;;;;;;15.25;12.05;;;22.30;99.90;;;;;;5100271;28;20040;-57
2023/07/09 06:21:40;;;;;;;16.73;11.98;;;22.40;99.90;;;;;;5101209;28;20059;-58
2023/07/09 06:24:07;;;;;;;14.60;11.07;;;22.50;99.90;;;;;;5099830;28;20078;-57
2023/07/09 06:26:33;;;;;;;14.57;11.88;;;22.50;99.90;;;;;;5098463;28;20083;-58
2023/07/09 06:28:58;;;;;;;15.45;11.98;;;22.60;99.90;;;;;;5100124;28;20146;-57
2023/07/09 06:31:25;;;;;;;15.20;11.77;;;22.70;99.90;;;;;;5099514;28;20059;-57
2023/07/09 06:33:51;;;;;;;14.68;10.85;;;22.80;99.90;;;;;;5101951;28;20072;-58
2023/07/09 06:36:18;;;;;;;15.13;11.57;;;22.90;99.90;;;;;;5099712;28;20036;-57
2023/07/09 06:38:44;;;;;;;17.73;12.45;;;22.90;99.90;;;;;;5101063;28;20153;-58
2023/07/09 06:41:10;;;;;;;17.58;12.88;;;23.10;99.90;;;;;;5099289;28;20044;-57
2023/07/09 06:43:39;;;;;;;15.93;12.05;;;23.20;99.90;;;;;;5099508;28;20079;-58
2023/07/09 06:46:08;;;;;;;15.88;12.25;;;23.40;99.90;;;;;;5099779;28;20487;-58
2023/07/09 06:48:33;;;;;;;18.38;12.23;;;23.60;99.90;;;;;;5097600;28;20401;-58
2023/07/09 06:51:00;;;;;;;18.30;11.57;;;23.70;99.90;;;;;;5134378;27;20063;-58
2023/07/09 06:53:27;;;;;;;16.65;11.98;;;23.90;99.90;;;;;;5098084;28;20047;-58
2023/07/09 06:55:55;;;;;;;15.75;12.27;;;24.00;99.90;;;;;;5100608;28;20032;-58
2023/07/09 06:58:23;;;;;;;17.15;12.18;;;24.20;99.90;;;;;;5100739;28;20075;-57
2023/07/09 07:00:49;;;;;;;17.58;12.05;;;24.40;99.90;;;;;;5099317;28;20036;-58
2023/07/09 07:03:15;;;;;;;16.42;12.00;;;24.60;99.90;;;;;;5099572;28;20079;-58
2023/07/09 07:05:49;;;;;;;15.68;11.80;;;24.70;99.90;;;;;;5098856;28;20089;-58
2023/07/09 07:08:17;;;;;;;16.70;11.60;;;24.90;99.90;;;;;;5101207;28;20086;-58
2023/07/09 07:10:46;;;;;;;15.60;11.75;;;25.00;99.90;;;;;;5098793;28;20051;-58
2023/07/09 07:13:12;;;;;;;17.20;12.05;;;25.10;99.90;;;;;;5098688;28;20104;-58
2023/07/09 07:15:39;;;;;;;18.65;12.63;;;25.20;99.90;;;;;;5099737;28;20040;-58
2023/07/09 07:18:05;;;;;;;19.05;12.52;;;25.30;99.90;;;;;;5098515;28;20079;-58
2023/07/09 07:20:31;;;;;;;17.02;12.07;;;25.40;99.90;;;;;;5100639;28;20101;-58
2023/07/09 07:22:57;;;;;;;16.80;12.38;;;25.50;99.90;;;;;;5098471;28;20044;-58
2023/07/09 07:25:24;;;;;;;21.17;12.45;;;25.60;99.90;;;;;;5100681;28;20101;-58
2023/07/09 07:27:50;;;;;;;16.27;11.82;;;25.80;99.90;;;;;;5098870;28;20040;-57
2023/07/09 07:30:16;;;;;;;14.18;10.57;;;25.90;99.90;;;;;;5099367;28;20130;-58
2023/07/09 07:32:48;;;;;;;17.45;12.13;;;26.10;99.90;;;;;;5099935;28;20051;-58
2023/07/09 07:35:14;;;;;;;15.48;10.88;;;26.20;99.90;;;;;;5098405;28;20044;-59
2023/07/09 07:37:41;;;;;;;12.80;10.20;;;26.40;99.90;;;;;;5100116;28;20032;-58
2023/07/09 07:40:08;;;;;;;16.83;10.90;;;26.60;99.90;;;;;;5096462;28;20086;-58
2023/07/09 07:42:34;;;;;;;14.55;10.93;;;26.80;99.90;;;;;;5100713;28;20100;-58
2023/07/09 07:45:00;;;;;;;15.00;10.20;;;26.80;99.90;;;;;;5098833;28;20048;-58
2023/07/09 07:47:29;;;;;;;12.75;9.80;;;26.90;99.90;;;;;;5099233;28;20048;-58
2023/07/09 07:49:55;;;;;;;13.15;9.75;;;27.10;99.90;;;;;;5099895;28;20048;-58
2023/07/09 07:52:21;;;;;;;15.93;9.85;;;27.30;99.90;;;;;;5097978;28;20067;-58
2023/07/09 07:54:46;;;;;;;16.45;11.05;;;27.40;99.90;;;;;;5098621;28;20109;-58
2023/07/09 07:57:12;;;;;;;14.20;10.00;;;27.50;99.90;;;;;;5097734;28;20036;-58
2023/07/09 07:59:38;;;;;;;16.02;10.10;;;27.50;99.90;;;;;;5133064;27;20040;-58
2023/07/09 08:02:06;;;;;;;13.38;9.55;;;27.60;99.90;;;;;;5098419;28;20048;-58
2023/07/09 08:04:32;;;;;;;15.30;11.65;;;27.60;99.90;;;;;;5097955;28;20089;-58
2023/07/09 08:06:58;;;;;;;13.18;9.60;;;27.70;99.90;;;;;;5132217;27;20036;-57
2023/07/09 08:09:24;;;;;;;17.95;9.60;;;27.80;99.90;;;;;;5097635;28;20078;-58
2023/07/09 08:11:50;;;;;;;15.07;10.23;;;27.90;99.90;;;;;;5099943;28;20048;-58
2023/07/09 08:14:16;;;;;;;14.15;9.98;;;28.10;99.90;;;;;;5097637;28;20089;-59
2023/07/09 08:16:42;;;;;;;16.15;10.15;;;28.30;99.90;;;;;;5099858;28;20036;-58
2023/07/09 08:19:07;;;;;;;11.75;9.63;;;28.40;99.90;;;;;;5096909;28;20104;-58
2023/07/09 08:21:33;;;;;;;12.63;9.57;;;28.50;99.90;;;;;;5099126;28;20047;-59
2023/07/09 08:23:59;;;;;;;12.77;8.55;;;28.60;99.90;;;;;;5099390;28;20044;-58
2023/07/09 08:26:26;;;;;;;12.48;9.23;;;28.80;99.70;;;;;;5097712;28;20040;-58
2023/07/09 08:28:52;;;;;;;13.02;9.05;;;29.00;99.20;;;;;;5103171;28;20083;-57
2023/07/09 08:31:18;;;;;;;12.27;8.75;;;29.10;98.60;;;;;;5100412;28;20474;-58
2023/07/09 08:33:43;;;;;;;14.23;9.15;;;29.30;98.30;;;;;;5102523;28;20092;-58
2023/07/09 08:36:09;;;;;;;13.55;8.55;;;29.40;97.90;;;;;;5101519;28;20051;-58
2023/07/09 08:38:35;;;;;;;16.00;9.20;;;29.50;97.90;;;;;;5084942;28;20082;-58
2023/07/09 08:41:08;;;;;;;11.10;8.32;;;29.50;97.70;;;;;;5101493;28;20051;-58
2023/07/09 08:43:49;;;;;;;9.85;7.63;;;29.70;97.50;;;;;;5101887;28;20071;-58
2023/07/09 08:46:24;;;;;;;11.63;8.80;;;29.70;97.70;;;;;;5102125;28;20052;-56
2023/07/09 08:48:52;;;;;;;10.75;8.00;;;29.80;97.10;;;;;;5101291;28;20044;-58
2023/07/09 08:51:23;;;;;;;12.00;8.23;;;29.90;96.80;;;;;;5102020;28;20063;-58
2023/07/09 08:53:59;;;;;;;14.07;8.90;;;30.00;96.80;;;;;;5102669;28;20067;-58
2023/07/09 08:56:26;;;;;;;12.10;8.73;;;30.10;96.60;;;;;;5101605;28;20048;-58
2023/07/09 08:58:55;;;;;;;11.55;8.57;;;30.20;96.40;;;;;;5103505;28;20036;-58
2023/07/09 09:01:25;;;;;;;12.73;7.55;;;30.40;96.10;;;;;;5101304;28;20039;-58
2023/07/09 09:03:56;;;;;;;16.00;8.25;;;30.40;95.60;;;;;;5103611;28;20046;-58
2023/07/09 09:06:27;;;;;;;11.93;8.18;;;30.40;95.40;;;;;;5101784;28;20484;-58
2023/07/09 09:09:26;;;;;;;12.95;8.40;;;30.50;95.00;;;;;;5102147;28;20051;-58
2023/07/09 09:12:03;;;;;;;10.98;8.25;;;30.50;94.80;;;;;;5068939;28;20051;-58
2023/07/09 09:14:40;;;;;;;11.07;7.75;;;30.50;95.10;;;;;;5100898;28;21095;-59
2023/07/09 09:17:13;;;;;;;12.35;8.15;;;30.60;94.70;;;;;;5102765;28;20047;-58
2023/07/09 09:19:53;;;;;;;11.45;8.00;;;30.70;94.20;;;;;;5102268;28;20044;-58
2023/07/09 09:22:24;;;;;;;12.65;8.20;;;30.70;94.50;;;;;;5100750;28;20037;-58
2023/07/09 09:25:14;;;;;;;11.70;8.90;;;30.80;94.30;;;;;;5102974;28;20042;-58
2023/07/09 09:27:40;;;;;;;15.98;8.38;;;30.90;93.80;;;;;;5101087;28;20063;-58
2023/07/09 09:30:15;;;;;;;13.38;9.40;;;30.90;94.00;;;;;;5102256;28;20032;-58
2023/07/09 09:32:53;;;;;;;15.45;8.88;;;31.00;93.60;;;;;;5102317;28;20047;-58
2023/07/09 09:35:20;;;;;;;15.45;9.02;;;31.00;93.80;;;;;;5100680;28;20100;-58
2023/07/09 09:37:55;;;;;;;16.73;9.68;;;31.00;93.90;;;;;;5102659;28;20064;-58
2023/07/09 09:40:23;;;;;;;16.00;9.60;;;31.00;93.30;;;;;;5099318;28;20040;-58
2023/07/09 09:42:50;;;;;;;14.70;9.15;;;31.00;93.50;;;;;;5101020;28;20072;-58
2023/07/09 09:45:19;;;;;;;12.63;8.70;;;31.00;93.90;;;;;;5101672;28;20046;-58
2023/07/09 09:47:46;;;;;;;15.48;8.48;;;31.00;93.80;;;;;;5100534;28;20040;-58
2023/07/09 09:50:20;;;;;;;12.43;8.65;;;30.90;93.60;;;;;;5102152;28;20058;-59
2023/07/09 09:52:47;;;;;;;14.82;8.90;;;30.90;93.60;;;;;;5100325;28;20048;-58
2023/07/09 09:55:22;;;;;;;15.40;9.27;;;30.90;93.60;;;;;;5102744;28;20032;-58
2023/07/09 09:57:50;;;;;;;14.57;8.60;;;30.90;93.50;;;;;;5101001;28;20044;-57
2023/07/09 10:00:16;;;;;;;16.08;9.00;;;30.90;93.80;;;;;;5101140;28;20044;-58
2023/07/09 10:02:45;;;;;;;11.63;9.15;;;30.80;93.60;;;;;;5101820;28;20043;-57
2023/07/09 10:05:21;;;;;;;12.32;8.73;;;30.90;93.70;;;;;;5100175;28;20051;-58
2023/07/09 10:07:56;;;;;;;12.23;7.90;;;30.90;93.60;;;;;;5102011;28;20051;-57
2023/07/09 10:10:28;;;;;;;12.40;8.95;;;30.90;93.60;;;;;;5099739;28;20105;-58
2023/07/09 10:13:10;;;;;;;13.95;7.63;;;30.90;93.80;;;;;;5101484;28;20043;-58
2023/07/09 10:16:07;;;;;;;12.02;8.07;;;30.90;94.10;;;;;;5101882;28;20074;-57
2023/07/09 10:18:32;;;;;;;14.38;8.55;;;30.90;93.00;;;;;;5099840;28;20044;-58
2023/07/09 10:21:21;;;;;;;12.52;7.50;;;30.80;93.50;;;;;;5100701;28;20115;-57
2023/07/09 10:24:24;;;;;;;13.52;8.75;;;30.80;94.10;;;;;;5101011;28;20139;-57
2023/07/09 10:27:01;;;;;;;12.05;7.82;;;30.80;93.60;;;;;;5099755;28;20101;-58
2023/07/09 10:29:39;;;;;;;13.68;8.20;;;30.80;93.70;;;;;;5100086;28;20075;-58
2023/07/09 10:32:47;;;;;;;10.60;7.70;;;30.70;93.00;;;;;;5099956;28;20044;-57
2023/07/09 10:35:23;;;;;;;11.18;8.63;;;30.70;93.50;;;;;;5078544;28;20052;-58
2023/07/09 10:38:16;;;;;;;11.10;7.55;;;30.60;92.80;;;;;;5100059;28;20044;-59
2023/07/09 10:40:55;;;;;;;13.20;7.43;;;30.60;93.20;;;;;;5099943;28;20040;-58
2023/07/09 10:43:44;;;;;;;11.38;7.07;;;30.60;93.10;;;;;;5099559;28;20044;-58
2023/07/09 10:46:23;;;;;;;12.52;7.95;;;30.60;93.50;;;;;;5101079;28;20568;-58
2023/07/09 10:48:51;;;;;;;11.10;8.20;;;30.60;93.40;;;;;;5097605;28;20184;-58
2023/07/09 10:51:28;;;;;;;11.23;8.27;;;30.60;92.60;;;;;;5100815;28;20051;-58
2023/07/09 10:54:02;;;;;;;14.30;7.63;;;30.60;92.30;;;;;;5100716;28;20065;-58
2023/07/09 10:56:33;;;;;;;10.98;7.80;;;30.60;92.40;;;;;;5099264;28;20131;-58
2023/07/09 10:59:33;;;;;;;12.02;7.80;;;30.60;92.50;;;;;;5100955;28;20496;-59
2023/07/09 11:02:21;;;;;;;12.27;7.43;;;30.60;93.10;;;;;;5099575;28;20036;-57
2023/07/09 11:04:58;;;;;;;9.38;7.25;;;30.70;93.30;;;;;;5081017;28;20069;-58
2023/07/09 11:07:50;;;;;;;10.68;7.15;;;30.70;93.20;;;;;;5100918;28;20054;-58
2023/07/09 11:10:18;;;;;;;10.43;8.00;;;30.80;93.50;;;;;;5096182;28;20519;-58
2023/07/09 11:12:52;;;;;;;11.75;7.50;;;30.80;93.80;;;;;;5100578;28;20048;-58
2023/07/09 11:15:31;;;;;;;13.63;7.65;;;30.90;93.60;;;;;;5100204;28;20043;-58
2023/07/09 11:17:59;;;;;;;9.48;7.45;;;30.90;93.70;;;;;;5098546;28;20084;-58
2023/07/09 11:20:31;;;;;;;10.25;7.22;;;31.00;93.90;;;;;;5100715;28;20055;-57
2023/07/09 11:23:16;;;;;;;10.10;7.38;;;31.10;94.50;;;;;;5098199;28;20052;-57
2023/07/09 11:25:43;;;;;;;12.35;7.80;;;31.20;94.00;;;;;;5100065;28;20055;-58
2023/07/09 11:28:09;;;;;;;8.98;6.85;;;31.20;93.90;;;;;;5100123;28;20048;-58
2023/07/09 11:30:51;;;;;;;11.15;6.95;;;31.30;93.40;;;;;;5097020;28;20040;-58
2023/07/09 11:33:29;;;;;;;9.82;6.53;;;31.40;93.30;;;;;;5098721;28;20044;-58
2023/07/09 11:36:15;;;;;;;10.13;6.57;;;31.40;93.30;;;;;;5098164;28;20254;-58
2023/07/09 11:38:46;;;;;;;;;;;31.40;92.70;;;;;;5100121;28;20052;-58
2023/07/09 11:41:25;;;;;;;12.45;6.43;;;31.40;92.20;;;;;;5132571;27;19975;-58
2023/07/09 11:43:51;;;;;;;8.77;6.65;;;31.40;92.40;;;;;;5096934;28;20056;-59
2023/07/09 11:46:21;;;;;;;13.60;6.32;;;31.50;93.00;;;;;;5100453;28;20070;-59
2023/07/09 11:48:50;;;;;;;9.65;6.95;;;31.70;93.30;;;;;;5097909;28;20059;-58
2023/07/09 11:51:29;;;;;;;7.30;6.07;;;31.80;93.30;;;;;;5100302;28;20036;-59
2023/07/09 11:53:55;;;;;;;10.73;5.60;;;31.80;92.90;;;;;;5099708;28;20560;-58
2023/07/09 11:56:24;;;;;;;10.13;6.07;;;31.90;92.50;;;;;;5098234;28;20076;-58
2023/07/09 11:58:56;;;;;;;13.13;6.28;;;31.90;91.90;;;;;;5098774;28;20167;-58
2023/07/09 12:01:36;;;;;;;8.55;6.30;;;32.00;92.20;;;;;;5096232;28;20056;-58
2023/07/09 12:04:04;;;;;;;9.70;6.57;;;32.00;91.20;;;;;;5099716;28;20341;-58
2023/07/09 12:06:33;;;;;;;11.10;6.55;;;32.10;91.00;;;;;;5098800;28;20054;-58
2023/07/09 12:08:59;;;;;;;12.23;6.35;;;32.20;90.70;;;;;;5098664;28;20051;-59
2023/07/09 12:11:29;;;;;;;9.23;5.90;;;32.20;90.80;;;;;;5097822;28;20048;-59
2023/07/09 12:14:02;;;;;;;10.55;5.90;;;32.20;90.50;;;;;;5097770;28;20040;-58
2023/07/09 12:16:31;;;;;;;9.13;6.68;;;32.30;90.50;;;;;;5098490;28;20040;-58
2023/07/09 12:18:57;;;;;;;7.93;5.72;;;32.40;90.30;;;;;;5097786;28;20047;-57
2023/07/09 12:21:24;;;;;;;10.40;6.45;;;32.60;90.40;;;;;;5099215;28;20033;-58
2023/07/09 12:23:50;;;;;;;9.93;6.50;;;32.60;90.50;;;;;;5097767;28;20059;-58
2023/07/09 12:26:19;;;;;;;12.30;6.53;;;32.70;90.00;;;;;;5097919;28;20054;-58
2023/07/09 12:28:57;;;;;;;9.63;6.25;;;32.80;90.10;;;;;;5097994;28;20043;-58
2023/07/09 12:31:28;;;;;;;9.20;6.22;;;33.00;90.10;;;;;;5097304;28;20051;-58
2023/07/09 12:33:56;;;;;;;8.43;6.07;;;33.10;89.10;;;;;;5100052;28;20079;-58
2023/07/09 12:36:24;;;;;;;9.90;5.68;;;33.20;88.10;;;;;;5098443;28;20111;-58
2023/07/09 12:38:53;;;;;;;9.20;6.05;;;33.30;88.30;;;;;;5098549;28;20096;-58
2023/07/09 12:41:25;;;;;;;8.30;5.72;;;33.40;87.40;;;;;;5099260;28;20300;-58
2023/07/09 12:43:55;;;;;;;10.65;5.90;;;33.40;87.70;;;;;;5097797;28;20047;-58
2023/07/09 12:46:22;;;;;;;12.18;6.22;;;33.50;88.20;;;;;;5081331;28;20058;-58